sensor_id;sensor_type;location;lat;lon;timestamp;pressure;altitude;pressure_sealevel;temperature;humidity
29467;BME280;60968;37.490;-122.288;2023-03-04T00:00:54;98705.97;;;11.40;77.40
29467;BME280;60968;37.490;-122.288;2023-03-04T00:03:55;98704.22;;;11.42;77.00
29467;BME280;60968;37.490;-122.288;2023-03-04T00:06:56;98706.91;;;11.39;77.69
29467;BME280;60968;37.490;-122.288;2023-03-04T00:09:56;98701.88;;;11.30;76.26
29467;BME280;60968;37.490;-122.288;2023-03-04T00:12:57;98707.28;;;11.21;76.02
29467;BME280;60968;37.490;-122.288;2023-03-04T00:15:59;98707.06;;;10.89;77.62
29467;BME280;60968;37.490;-122.288;2023-03-04T00:19:00;98726.84;;;10.99;77.99
29467;BME280;60968;37.490;-122.288;2023-03-04T00:22:02;98721.91;;;10.87;78.79
29467;BME280;60968;37.490;-122.288;2023-03-04T00:25:04;98723.31;;;10.58;79.86
29467;BME280;60968;37.490;-122.288;2023-03-04T00:28:05;98724.44;;;10.43;81.32
29467;BME280;60968;37.490;-122.288;2023-03-04T00:31:06;98721.13;;;10.35;81.28
29467;BME280;60968;37.490;-122.288;2023-03-04T00:34:07;98723.22;;;10.13;81.03
29467;BME280;60968;37.490;-122.288;2023-03-04T00:37:08;98723.88;;;9.71;82.76
29467;BME280;60968;37.490;-122.288;2023-03-04T00:40:10;98716.41;;;9.50;84.95
29467;BME280;60968;37.490;-122.288;2023-03-04T00:43:11;98713.84;;;9.47;84.94
29467;BME280;60968;37.490;-122.288;2023-03-04T00:46:12;98703.44;;;9.47;84.95
29467;BME280;60968;37.490;-122.288;2023-03-04T00:49:13;98708.69;;;9.42;82.36
29467;BME280;60968;37.490;-122.288;2023-03-04T00:52:14;98698.47;;;9.28;83.06
29467;BME280;60968;37.490;-122.288;2023-03-04T00:55:15;98695.75;;;9.37;84.05
29467;BME280;60968;37.490;-122.288;2023-03-04T00:58:16;98700.88;;;9.43;82.05
29467;BME280;60968;37.490;-122.288;2023-03-04T01:01:17;98695.63;;;9.45;81.24
29467;BME280;60968;37.490;-122.288;2023-03-04T01:04:18;98695.88;;;9.31;81.29
29467;BME280;60968;37.490;-122.288;2023-03-04T01:07:18;98692.59;;;9.15;81.76
29467;BME280;60968;37.490;-122.288;2023-03-04T01:10:19;98696.19;;;9.06;83.09
29467;BME280;60968;37.490;-122.288;2023-03-04T01:13:20;98698.94;;;8.94;82.68
29467;BME280;60968;37.490;-122.288;2023-03-04T01:16:22;98702.44;;;8.91;83.10
29467;BME280;60968;37.490;-122.288;2023-03-04T01:19:23;98699.84;;;8.90;84.64
29467;BME280;60968;37.490;-122.288;2023-03-04T01:22:24;98702.00;;;8.55;86.56
29467;BME280;60968;37.490;-122.288;2023-03-04T01:25:25;98710.88;;;8.31;88.47
29467;BME280;60968;37.490;-122.288;2023-03-04T01:28:26;98711.88;;;8.15;89.55
29467;BME280;60968;37.490;-122.288;2023-03-04T01:31:27;98698.88;;;8.16;89.29
29467;BME280;60968;37.490;-122.288;2023-03-04T01:34:28;98712.09;;;7.90;87.88
29467;BME280;60968;37.490;-122.288;2023-03-04T01:37:29;98713.91;;;7.79;88.31
29467;BME280;60968;37.490;-122.288;2023-03-04T01:40:30;98707.16;;;7.56;88.65
29467;BME280;60968;37.490;-122.288;2023-03-04T01:43:31;98707.31;;;7.33;90.89
29467;BME280;60968;37.490;-122.288;2023-03-04T01:46:32;98715.91;;;7.36;91.68
29467;BME280;60968;37.490;-122.288;2023-03-04T01:49:33;98715.19;;;7.16;93.56
29467;BME280;60968;37.490;-122.288;2023-03-04T01:52:41;98706.59;;;7.08;94.64
29467;BME280;60968;37.490;-122.288;2023-03-04T01:55:42;98719.56;;;6.98;95.78
29467;BME280;60968;37.490;-122.288;2023-03-04T01:58:43;98713.59;;;6.85;97.33
29467;BME280;60968;37.490;-122.288;2023-03-04T02:01:55;98694.63;;;6.76;99.03
29467;BME280;60968;37.490;-122.288;2023-03-04T02:04:57;98698.94;;;6.72;99.34
29467;BME280;60968;37.490;-122.288;2023-03-04T02:07:59;98713.66;;;6.65;99.87
29467;BME280;60968;37.490;-122.288;2023-03-04T02:11:01;98718.84;;;6.65;100.00
29467;BME280;60968;37.490;-122.288;2023-03-04T02:14:02;98720.59;;;6.56;100.00
29467;BME280;60968;37.490;-122.288;2023-03-04T02:17:09;98721.44;;;6.58;100.00
29467;BME280;60968;37.490;-122.288;2023-03-04T02:20:36;98725.75;;;6.62;100.00
29467;BME280;60968;37.490;-122.288;2023-03-04T02:24:00;98707.69;;;6.42;100.00
29467;BME280;60968;37.490;-122.288;2023-03-04T02:27:03;98725.78;;;6.35;100.00
29467;BME280;60968;37.490;-122.288;2023-03-04T02:30:05;98724.97;;;6.27;100.00
29467;BME280;60968;37.490;-122.288;2023-03-04T02:33:13;98711.16;;;6.33;100.00
29467;BME280;60968;37.490;-122.288;2023-03-04T02:36:15;98718.06;;;6.23;100.00
29467;BME280;60968;37.490;-122.288;2023-03-04T02:42:19;98730.97;;;6.18;100.00
29467;BME280;60968;37.490;-122.288;2023-03-04T02:46:03;98731.88;;;6.19;100.00
29467;BME280;60968;37.490;-122.288;2023-03-04T02:48:56;98723.25;;;6.14;100.00
29467;BME280;60968;37.490;-122.288;2023-03-04T02:52:12;98717.19;;;6.20;100.00
29467;BME280;60968;37.490;-122.288;2023-03-04T02:55:16;98722.34;;;6.23;100.00
29467;BME280;60968;37.490;-122.288;2023-03-04T02:58:18;98732.72;;;6.20;100.00
29467;BME280;60968;37.490;-122.288;2023-03-04T03:01:19;98727.56;;;6.16;100.00
29467;BME280;60968;37.490;-122.288;2023-03-04T03:04:21;98739.63;;;6.21;100.00
29467;BME280;60968;37.490;-122.288;2023-03-04T03:07:22;98749.09;;;6.14;100.00
29467;BME280;60968;37.490;-122.288;2023-03-04T03:10:23;98744.78;;;6.16;100.00
29467;BME280;60968;37.490;-122.288;2023-03-04T03:13:24;98752.56;;;6.17;100.00
29467;BME280;60968;37.490;-122.288;2023-03-04T03:16:25;98751.69;;;6.14;99.61
29467;BME280;60968;37.490;-122.288;2023-03-04T03:19:26;98747.38;;;6.13;99.84
29467;BME280;60968;37.490;-122.288;2023-03-04T03:22:27;98740.47;;;6.18;99.32
29467;BME280;60968;37.490;-122.288;2023-03-04T03:25:29;98751.69;;;6.11;100.00
29467;BME280;60968;37.490;-122.288;2023-03-04T03:28:30;98759.44;;;5.97;100.00
29467;BME280;60968;37.490;-122.288;2023-03-04T03:31:31;98758.56;;;5.90;100.00
29467;BME280;60968;37.490;-122.288;2023-03-04T03:34:33;98757.69;;;5.88;100.00
29467;BME280;60968;37.490;-122.288;2023-03-04T03:37:34;98753.34;;;5.79;100.00
29467;BME280;60968;37.490;-122.288;2023-03-04T03:40:35;98760.28;;;5.85;100.00
29467;BME280;60968;37.490;-122.288;2023-03-04T03:43:36;98762.00;;;5.78;100.00
29467;BME280;60968;37.490;-122.288;2023-03-04T03:46:37;98751.66;;;5.86;100.00
29467;BME280;60968;37.490;-122.288;2023-03-04T03:49:37;98754.25;;;5.86;100.00
29467;BME280;60968;37.490;-122.288;2023-03-04T03:52:38;98752.53;;;5.85;100.00
29467;BME280;60968;37.490;-122.288;2023-03-04T03:55:39;98749.94;;;5.87;100.00
29467;BME280;60968;37.490;-122.288;2023-03-04T03:58:41;98755.09;;;5.77;100.00
29467;BME280;60968;37.490;-122.288;2023-03-04T04:01:42;98749.94;;;5.76;100.00
29467;BME280;60968;37.490;-122.288;2023-03-04T04:04:43;98750.78;;;5.72;100.00
29467;BME280;60968;37.490;-122.288;2023-03-04T04:07:47;98746.47;;;5.67;100.00
29467;BME280;60968;37.490;-122.288;2023-03-04T04:10:49;98749.06;;;5.66;100.00
29467;BME280;60968;37.490;-122.288;2023-03-04T04:13:49;98744.72;;;5.66;100.00
29467;BME280;60968;37.490;-122.288;2023-03-04T04:16:50;98745.63;;;5.75;100.00
29467;BME280;60968;37.490;-122.288;2023-03-04T04:19:53;98734.38;;;5.68;100.00
29467;BME280;60968;37.490;-122.288;2023-03-04T04:22:54;98730.09;;;5.69;100.00
29467;BME280;60968;37.490;-122.288;2023-03-04T04:25:55;98731.84;;;5.73;100.00
29467;BME280;60968;37.490;-122.288;2023-03-04T04:28:57;98734.38;;;5.68;100.00
29467;BME280;60968;37.490;-122.288;2023-03-04T04:31:58;98730.97;;;5.67;100.00
29467;BME280;60968;37.490;-122.288;2023-03-04T04:34:59;98736.13;;;5.61;100.00
29467;BME280;60968;37.490;-122.288;2023-03-04T04:38:02;98731.81;;;5.66;100.00
29467;BME280;60968;37.490;-122.288;2023-03-04T04:41:03;98724.09;;;5.71;100.00
29467;BME280;60968;37.490;-122.288;2023-03-04T04:44:04;98723.22;;;5.77;100.00
29467;BME280;60968;37.490;-122.288;2023-03-04T04:47:06;98721.50;;;5.71;100.00
29467;BME280;60968;37.490;-122.288;2023-03-04T04:50:07;98721.50;;;5.71;100.00
29467;BME280;60968;37.490;-122.288;2023-03-04T04:53:11;98693.91;;;5.72;100.00
29467;BME280;60968;37.490;-122.288;2023-03-04T04:56:15;98705.97;;;5.77;100.00
29467;BME280;60968;37.490;-122.288;2023-03-04T04:59:17;98698.22;;;5.73;100.00
29467;BME280;60968;37.490;-122.288;2023-03-04T05:02:18;98700.78;;;5.68;100.00
29467;BME280;60968;37.490;-122.288;2023-03-04T05:05:18;98706.81;;;5.61;100.00
29467;BME280;60968;37.490;-122.288;2023-03-04T05:08:22;98694.78;;;5.60;100.00
29467;BME280;60968;37.490;-122.288;2023-03-04T05:11:23;98687.88;;;5.56;100.00
29467;BME280;60968;37.490;-122.288;2023-03-04T05:14:24;98696.50;;;5.55;100.00
29467;BME280;60968;37.490;-122.288;2023-03-04T05:17:26;98693.03;;;5.51;100.00
29467;BME280;60968;37.490;-122.288;2023-03-04T05:20:27;98695.59;;;5.51;100.00
29467;BME280;60968;37.490;-122.288;2023-03-04T05:23:31;98712.84;;;5.55;100.00
29467;BME280;60968;37.490;-122.288;2023-03-04T05:26:32;98705.97;;;5.62;100.00
29467;BME280;60968;37.490;-122.288;2023-03-04T05:29:33;98708.56;;;5.60;100.00
29467;BME280;60968;37.490;-122.288;2023-03-04T05:32:34;98712.00;;;5.55;100.00
29467;BME280;60968;37.490;-122.288;2023-03-04T05:35:35;98716.28;;;5.51;100.00
29467;BME280;60968;37.490;-122.288;2023-03-04T05:38:37;98709.38;;;5.47;100.00
29467;BME280;60968;37.490;-122.288;2023-03-04T05:41:38;98718.88;;;5.46;100.00
29467;BME280;60968;37.490;-122.288;2023-03-04T05:44:38;98719.75;;;5.48;100.00
29467;BME280;60968;37.490;-122.288;2023-03-04T05:47:39;98725.78;;;5.50;100.00
29467;BME280;60968;37.490;-122.288;2023-03-04T05:50:40;98713.72;;;5.57;100.00
29467;BME280;60968;37.490;-122.288;2023-03-04T05:53:41;98718.00;;;5.55;100.00
29467;BME280;60968;37.490;-122.288;2023-03-04T05:56:42;98729.22;;;5.54;100.00
29467;BME280;60968;37.490;-122.288;2023-03-04T05:59:43;98724.91;;;5.55;100.00
29467;BME280;60968;37.490;-122.288;2023-03-04T06:02:45;98724.06;;;5.56;100.00
29467;BME280;60968;37.490;-122.288;2023-03-04T06:05:46;98719.75;;;5.53;100.00
29467;BME280;60968;37.490;-122.288;2023-03-04T06:08:47;98707.69;;;5.55;100.00
29467;BME280;60968;37.490;-122.288;2023-03-04T06:11:48;98726.66;;;5.54;100.00
29467;BME280;60968;37.490;-122.288;2023-03-04T06:14:49;98718.00;;;5.58;100.00
29467;BME280;60968;37.490;-122.288;2023-03-04T06:17:50;98711.13;;;5.60;100.00
29467;BME280;60968;37.490;-122.288;2023-03-04T06:20:58;98705.97;;;5.60;100.00
29467;BME280;60968;37.490;-122.288;2023-03-04T06:24:00;98707.66;;;5.58;100.00
29467;BME280;60968;37.490;-122.288;2023-03-04T06:27:01;98705.13;;;5.63;100.00
29467;BME280;60968;37.490;-122.288;2023-03-04T06:30:04;98695.63;;;5.57;100.00
29467;BME280;60968;37.490;-122.288;2023-03-04T06:33:05;98688.72;;;5.59;100.00
29467;BME280;60968;37.490;-122.288;2023-03-04T06:36:06;98687.84;;;5.51;100.00
29467;BME280;60968;37.490;-122.288;2023-03-04T06:39:08;98685.28;;;5.48;100.00
29467;BME280;60968;37.490;-122.288;2023-03-04T06:42:11;98693.03;;;5.43;100.00
29467;BME280;60968;37.490;-122.288;2023-03-04T06:45:12;98684.44;;;5.46;100.00
29467;BME280;60968;37.490;-122.288;2023-03-04T06:48:13;98664.59;;;5.51;100.00
29467;BME280;60968;37.490;-122.288;2023-03-04T06:51:14;98667.22;;;5.54;100.00
29467;BME280;60968;37.490;-122.288;2023-03-04T06:54:15;98665.47;;;5.52;100.00
29467;BME280;60968;37.490;-122.288;2023-03-04T06:57:16;98661.16;;;5.52;100.00
29467;BME280;60968;37.490;-122.288;2023-03-04T07:00:18;98666.31;;;5.54;100.00
29467;BME280;60968;37.490;-122.288;2023-03-04T07:03:19;98674.97;;;5.54;100.00
29467;BME280;60968;37.490;-122.288;2023-03-04T07:06:22;98669.75;;;5.49;100.00
29467;BME280;60968;37.490;-122.288;2023-03-04T07:09:24;98670.63;;;5.47;100.00
29467;BME280;60968;37.490;-122.288;2023-03-04T07:12:24;98654.28;;;5.43;100.00
29467;BME280;60968;37.490;-122.288;2023-03-04T07:15:25;98664.59;;;5.42;100.00
29467;BME280;60968;37.490;-122.288;2023-03-04T07:18:26;98658.56;;;5.38;100.00
29467;BME280;60968;37.490;-122.288;2023-03-04T07:21:28;98659.41;;;5.36;100.00
29467;BME280;60968;37.490;-122.288;2023-03-04T07:24:29;98662.84;;;5.28;100.00
29467;BME280;60968;37.490;-122.288;2023-03-04T07:27:30;98658.53;;;5.26;100.00
29467;BME280;60968;37.490;-122.288;2023-03-04T07:30:32;98665.44;;;5.24;100.00
29467;BME280;60968;37.490;-122.288;2023-03-04T07:33:32;98649.94;;;5.25;100.00
29467;BME280;60968;37.490;-122.288;2023-03-04T07:36:35;98642.22;;;5.33;100.00
29467;BME280;60968;37.490;-122.288;2023-03-04T07:39:36;98640.47;;;5.27;100.00
29467;BME280;60968;37.490;-122.288;2023-03-04T07:42:37;98638.75;;;5.29;100.00
29467;BME280;60968;37.490;-122.288;2023-03-04T07:45:40;98638.75;;;5.31;100.00
29467;BME280;60968;37.490;-122.288;2023-03-04T07:48:41;98637.91;;;5.29;100.00
29467;BME280;60968;37.490;-122.288;2023-03-04T07:51:42;98632.72;;;5.21;100.00
29467;BME280;60968;37.490;-122.288;2023-03-04T07:54:42;98630.16;;;5.27;100.00
29467;BME280;60968;37.490;-122.288;2023-03-04T07:57:45;98623.22;;;5.20;100.00
29467;BME280;60968;37.490;-122.288;2023-03-04T08:00:46;98634.44;;;5.24;100.00
29467;BME280;60968;37.490;-122.288;2023-03-04T08:03:47;98649.06;;;5.20;100.00
29467;BME280;60968;37.490;-122.288;2023-03-04T08:06:49;98632.72;;;5.15;100.00
29467;BME280;60968;37.490;-122.288;2023-03-04T08:09:49;98629.28;;;5.21;100.00
29467;BME280;60968;37.490;-122.288;2023-03-04T08:12:50;98630.13;;;5.24;100.00
29467;BME280;60968;37.490;-122.288;2023-03-04T08:15:51;98612.94;;;5.23;100.00
29467;BME280;60968;37.490;-122.288;2023-03-04T08:19:01;98607.75;;;5.29;100.00
29467;BME280;60968;37.490;-122.288;2023-03-04T08:22:02;98624.97;;;5.21;100.00
29467;BME280;60968;37.490;-122.288;2023-03-04T08:25:03;98621.53;;;5.22;100.00
29467;BME280;60968;37.490;-122.288;2023-03-04T08:28:05;98624.06;;;5.16;100.00
29467;BME280;60968;37.490;-122.288;2023-03-04T08:31:06;98616.34;;;5.13;100.00
29467;BME280;60968;37.490;-122.288;2023-03-04T08:34:07;98617.22;;;5.13;100.00
29467;BME280;60968;37.490;-122.288;2023-03-04T08:37:08;98618.06;;;5.14;100.00
29467;BME280;60968;37.490;-122.288;2023-03-04T08:40:10;98629.25;;;5.13;100.00
29467;BME280;60968;37.490;-122.288;2023-03-04T08:43:11;98621.53;;;5.19;100.00
29467;BME280;60968;37.490;-122.288;2023-03-04T08:46:12;98624.09;;;5.28;100.00
29467;BME280;60968;37.490;-122.288;2023-03-04T08:49:13;98624.97;;;5.29;100.00
29467;BME280;60968;37.490;-122.288;2023-03-04T08:52:14;98627.56;;;5.27;100.00
29467;BME280;60968;37.490;-122.288;2023-03-04T08:55:15;98631.84;;;5.25;100.00
29467;BME280;60968;37.490;-122.288;2023-03-04T08:58:15;98628.41;;;5.25;100.00
29467;BME280;60968;37.490;-122.288;2023-03-04T09:01:16;98626.69;;;5.25;100.00
29467;BME280;60968;37.490;-122.288;2023-03-04T09:04:19;98629.28;;;5.28;100.00
29467;BME280;60968;37.490;-122.288;2023-03-04T09:07:20;98630.13;;;5.21;100.00
29467;BME280;60968;37.490;-122.288;2023-03-04T09:10:21;98633.56;;;5.22;100.00
29467;BME280;60968;37.490;-122.288;2023-03-04T09:13:23;98628.41;;;5.23;100.00
29467;BME280;60968;37.490;-122.288;2023-03-04T09:16:25;98613.78;;;5.22;100.00
29467;BME280;60968;37.490;-122.288;2023-03-04T09:19:26;98616.34;;;5.13;100.00
29467;BME280;60968;37.490;-122.288;2023-03-04T09:22:27;98624.94;;;4.96;100.00
29467;BME280;60968;37.490;-122.288;2023-03-04T09:25:28;98610.25;;;4.91;100.00
29467;BME280;60968;37.490;-122.288;2023-03-04T09:28:29;98605.09;;;4.78;100.00
29467;BME280;60968;37.490;-122.288;2023-03-04T09:31:30;98611.06;;;4.70;100.00
29467;BME280;60968;37.490;-122.288;2023-03-04T09:34:31;98611.06;;;4.70;100.00
29467;BME280;60968;37.490;-122.288;2023-03-04T09:37:33;98601.63;;;4.73;100.00
29467;BME280;60968;37.490;-122.288;2023-03-04T09:40:52;98600.78;;;4.82;100.00
29467;BME280;60968;37.490;-122.288;2023-03-04T09:43:53;98589.59;;;4.88;100.00
29467;BME280;60968;37.490;-122.288;2023-03-04T09:46:59;98596.50;;;4.95;100.00
29467;BME280;60968;37.490;-122.288;2023-03-04T09:50:06;98592.22;;;4.97;100.00
29467;BME280;60968;37.490;-122.288;2023-03-04T09:53:22;98585.31;;;5.01;100.00
29467;BME280;60968;37.490;-122.288;2023-03-04T09:56:25;98583.63;;;5.03;100.00
29467;BME280;60968;37.490;-122.288;2023-03-04T09:59:37;98576.72;;;5.00;100.00
29467;BME280;60968;37.490;-122.288;2023-03-04T10:05:57;98556.06;;;5.02;100.00
29467;BME280;60968;37.490;-122.288;2023-03-04T10:09:04;98550.91;;;5.02;100.00
29467;BME280;60968;37.490;-122.288;2023-03-04T10:12:15;98543.16;;;5.00;100.00
29467;BME280;60968;37.490;-122.288;2023-03-04T10:18:48;98530.25;;;4.97;100.00
29467;BME280;60968;37.490;-122.288;2023-03-04T10:21:51;98539.72;;;5.03;100.00
29467;BME280;60968;37.490;-122.288;2023-03-04T10:25:06;98536.25;;;4.97;100.00
29467;BME280;60968;37.490;-122.288;2023-03-04T10:28:30;98531.97;;;4.93;100.00
29467;BME280;60968;37.490;-122.288;2023-03-04T10:31:35;98531.97;;;4.90;100.00
29467;BME280;60968;37.490;-122.288;2023-03-04T10:34:38;98525.94;;;4.88;100.00
29467;BME280;60968;37.490;-122.288;2023-03-04T10:37:48;98520.78;;;4.91;100.00
29467;BME280;60968;37.490;-122.288;2023-03-04T10:40:51;98526.78;;;4.92;100.00
29467;BME280;60968;37.490;-122.288;2023-03-04T10:46:58;98523.38;;;4.88;100.00
29467;BME280;60968;37.490;-122.288;2023-03-04T10:50:02;98531.09;;;4.88;100.00
29467;BME280;60968;37.490;-122.288;2023-03-04T10:53:04;98522.50;;;4.94;100.00
29467;BME280;60968;37.490;-122.288;2023-03-04T10:56:36;98519.91;;;4.98;100.00
29467;BME280;60968;37.490;-122.288;2023-03-04T10:59:43;98502.72;;;5.05;100.00
29467;BME280;60968;37.490;-122.288;2023-03-04T11:02:46;98503.56;;;5.04;100.00
29467;BME280;60968;37.490;-122.288;2023-03-04T11:05:47;98495.81;;;5.06;100.00
29467;BME280;60968;37.490;-122.288;2023-03-04T11:08:56;98488.94;;;5.08;100.00
29467;BME280;60968;37.490;-122.288;2023-03-04T11:12:01;98491.53;;;5.11;100.00
29467;BME280;60968;37.490;-122.288;2023-03-04T11:15:20;98487.22;;;5.07;100.00
29467;BME280;60968;37.490;-122.288;2023-03-04T11:21:37;98499.28;;;5.11;100.00
29467;BME280;60968;37.490;-122.288;2023-03-04T11:24:42;98482.91;;;5.20;100.00
29467;BME280;60968;37.490;-122.288;2023-03-04T11:27:47;98483.75;;;5.22;100.00
29467;BME280;60968;37.490;-122.288;2023-03-04T11:30:57;98466.53;;;5.22;100.00
29467;BME280;60968;37.490;-122.288;2023-03-04T11:40:38;98476.00;;;5.20;100.00
29467;BME280;60968;37.490;-122.288;2023-03-04T11:43:45;98495.81;;;5.21;100.00
29467;BME280;60968;37.490;-122.288;2023-03-04T11:47:08;98501.81;;;5.20;100.00
29467;BME280;60968;37.490;-122.288;2023-03-04T11:54:02;98483.75;;;5.20;100.00
29467;BME280;60968;37.490;-122.288;2023-03-04T12:04:14;98473.44;;;5.26;100.00
29467;BME280;60968;37.490;-122.288;2023-03-04T12:07:36;98483.78;;;5.23;100.00
29467;BME280;60968;37.490;-122.288;2023-03-04T12:23:43;98470.84;;;5.29;100.00
29467;BME280;60968;37.490;-122.288;2023-03-04T12:27:16;98471.69;;;5.28;100.00
29467;BME280;60968;37.490;-122.288;2023-03-04T12:37:20;98476.00;;;5.31;100.00
29467;BME280;60968;37.490;-122.288;2023-03-04T12:53:35;98467.34;;;5.49;100.00
29467;BME280;60968;37.490;-122.288;2023-03-04T12:56:55;98475.09;;;5.50;100.00
29467;BME280;60968;37.490;-122.288;2023-03-04T13:10:10;98444.13;;;5.33;100.00
29467;BME280;60968;37.490;-122.288;2023-03-04T13:16:58;98429.50;;;5.31;100.00
29467;BME280;60968;37.490;-122.288;2023-03-04T13:20:31;98422.59;;;5.28;100.00
29467;BME280;60968;37.490;-122.288;2023-03-04T13:23:32;98432.97;;;5.22;100.00
29467;BME280;60968;37.490;-122.288;2023-03-04T13:26:34;98438.13;;;5.21;100.00
29467;BME280;60968;37.490;-122.288;2023-03-04T13:29:36;98442.44;;;5.23;100.00
29467;BME280;60968;37.490;-122.288;2023-03-04T13:32:37;98451.91;;;5.30;100.00
29467;BME280;60968;37.490;-122.288;2023-03-04T13:42:53;98430.28;;;5.56;100.00
29467;BME280;60968;37.490;-122.288;2023-03-04T13:45:54;98432.84;;;5.61;100.00
29467;BME280;60968;37.490;-122.288;2023-03-04T13:55:39;98416.50;;;5.59;100.00
29467;BME280;60968;37.490;-122.288;2023-03-04T13:58:40;98418.22;;;5.58;100.00
29467;BME280;60968;37.490;-122.288;2023-03-04T14:01:48;98419.09;;;5.59;100.00
29467;BME280;60968;37.490;-122.288;2023-03-04T14:07:54;98434.59;;;5.57;100.00
29467;BME280;60968;37.490;-122.288;2023-03-04T14:10:55;98427.69;;;5.58;100.00
29467;BME280;60968;37.490;-122.288;2023-03-04T14:14:02;98422.53;;;5.58;100.00
29467;BME280;60968;37.490;-122.288;2023-03-04T14:17:04;98407.03;;;5.58;100.00
29467;BME280;60968;37.490;-122.288;2023-03-04T14:20:33;98413.94;;;5.57;100.00
29467;BME280;60968;37.490;-122.288;2023-03-04T14:23:35;98413.94;;;5.51;100.00
29467;BME280;60968;37.490;-122.288;2023-03-04T14:26:35;98409.66;;;5.50;100.00
29467;BME280;60968;37.490;-122.288;2023-03-04T14:29:36;98419.13;;;5.45;100.00
29467;BME280;60968;37.490;-122.288;2023-03-04T14:32:41;98421.72;;;5.45;100.00
29467;BME280;60968;37.490;-122.288;2023-03-04T14:35:51;98431.19;;;5.47;100.00
29467;BME280;60968;37.490;-122.288;2023-03-04T14:39:00;98420.84;;;5.46;100.00
29467;BME280;60968;37.490;-122.288;2023-03-04T14:42:08;98416.53;;;5.54;100.00
29467;BME280;60968;37.490;-122.288;2023-03-04T14:45:13;98413.09;;;5.50;100.00
29467;BME280;60968;37.490;-122.288;2023-03-04T14:48:31;98420.81;;;5.54;100.00
29467;BME280;60968;37.490;-122.288;2023-03-04T14:51:46;98421.69;;;5.54;100.00
29467;BME280;60968;37.490;-122.288;2023-03-04T14:55:00;98412.22;;;5.53;100.00
29467;BME280;60968;37.490;-122.288;2023-03-04T14:58:31;98425.13;;;5.53;100.00
29467;BME280;60968;37.490;-122.288;2023-03-04T15:01:35;98439.72;;;5.65;100.00
29467;BME280;60968;37.490;-122.288;2023-03-04T15:04:39;98458.66;;;5.75;100.00
29467;BME280;60968;37.490;-122.288;2023-03-04T15:07:41;98470.69;;;5.85;100.00
29467;BME280;60968;37.490;-122.288;2023-03-04T15:10:53;98476.72;;;5.84;100.00
29467;BME280;60968;37.490;-122.288;2023-03-04T15:13:57;98464.69;;;5.77;100.00
29467;BME280;60968;37.490;-122.288;2023-03-04T15:16:58;98466.38;;;5.78;100.00
29467;BME280;60968;37.490;-122.288;2023-03-04T15:20:11;98443.97;;;5.84;100.00
29467;BME280;60968;37.490;-122.288;2023-03-04T15:23:17;98446.50;;;5.97;100.00
29467;BME280;60968;37.490;-122.288;2023-03-04T15:26:18;98446.50;;;5.95;100.00
29467;BME280;60968;37.490;-122.288;2023-03-04T15:29:21;98445.66;;;5.90;100.00
29467;BME280;60968;37.490;-122.288;2023-03-04T15:32:22;98435.34;;;5.87;100.00
29467;BME280;60968;37.490;-122.288;2023-03-04T15:35:24;98426.72;;;5.91;100.00
29467;BME280;60968;37.490;-122.288;2023-03-04T15:38:28;98431.94;;;5.79;100.00
29467;BME280;60968;37.490;-122.288;2023-03-04T15:41:29;98431.03;;;5.83;100.00
29467;BME280;60968;37.490;-122.288;2023-03-04T15:44:30;98420.66;;;5.95;100.00
29467;BME280;60968;37.490;-122.288;2023-03-04T15:47:31;98406.81;;;6.07;100.00
29467;BME280;60968;37.490;-122.288;2023-03-04T15:50:36;98402.53;;;6.06;100.00
29467;BME280;60968;37.490;-122.288;2023-03-04T15:53:44;98390.47;;;6.04;100.00
29467;BME280;60968;37.490;-122.288;2023-03-04T15:56:45;98399.06;;;6.07;100.00
29467;BME280;60968;37.490;-122.288;2023-03-04T15:59:46;98399.84;;;6.20;100.00
29467;BME280;60968;37.490;-122.288;2023-03-04T16:02:47;98404.06;;;6.33;100.00
29467;BME280;60968;37.490;-122.288;2023-03-04T16:05:50;98403.16;;;6.41;100.00
29467;BME280;60968;37.490;-122.288;2023-03-04T16:08:51;98404.97;;;6.29;100.00
29467;BME280;60968;37.490;-122.288;2023-03-04T16:11:52;98409.31;;;6.24;100.00
29467;BME280;60968;37.490;-122.288;2023-03-04T16:14:53;98399.84;;;6.20;100.00
29467;BME280;60968;37.490;-122.288;2023-03-04T16:17:55;98403.25;;;6.27;100.00
29467;BME280;60968;37.490;-122.288;2023-03-04T16:20:56;98401.41;;;6.41;100.00
29467;BME280;60968;37.490;-122.288;2023-03-04T16:23:57;98408.34;;;6.41;100.00
29467;BME280;60968;37.490;-122.288;2023-03-04T16:26:58;98391.78;;;6.63;100.00
29467;BME280;60968;37.490;-122.288;2023-03-04T16:29:59;98361.56;;;6.67;100.00
29467;BME280;60968;37.490;-122.288;2023-03-04T16:33:00;98362.09;;;6.98;100.00
29467;BME280;60968;37.490;-122.288;2023-03-04T16:36:01;98368.81;;;7.18;96.77
29467;BME280;60968;37.490;-122.288;2023-03-04T16:39:05;98380.66;;;7.41;95.91
29467;BME280;60968;37.490;-122.288;2023-03-04T16:42:19;98372.63;;;7.62;94.58
29467;BME280;60968;37.490;-122.288;2023-03-04T16:45:26;98324.09;;;7.73;92.33
29467;BME280;60968;37.490;-122.288;2023-03-04T16:48:27;98328.03;;;7.99;90.74
29467;BME280;60968;37.490;-122.288;2023-03-04T16:51:27;98340.19;;;7.96;89.40
29467;BME280;60968;37.490;-122.288;2023-03-04T16:54:31;98334.88;;;8.05;89.38
29467;BME280;60968;37.490;-122.288;2023-03-04T16:57:33;98322.56;;;8.18;88.36
29467;BME280;60968;37.490;-122.288;2023-03-04T17:00:35;98327.91;;;8.10;87.50
29467;BME280;60968;37.490;-122.288;2023-03-04T17:03:36;98317.34;;;8.19;86.28
29467;BME280;60968;37.490;-122.288;2023-03-04T17:06:37;98324.06;;;8.34;85.01
29467;BME280;60968;37.490;-122.288;2023-03-04T17:09:38;98329.06;;;8.97;83.82
29467;BME280;60968;37.490;-122.288;2023-03-04T17:12:39;98341.19;;;10.23;75.20